sensor_id;sensor_type;location;lat;lon;timestamp;noise_LAeq;noise_LA_min;noise_LA_max;noise_LA01;noise_LA95
42701;Laerm;28316;49.504;8.526;2023-03-01T00:02:21;40.26;37.70;42.09;;
42701;Laerm;28316;49.504;8.526;2023-03-01T00:04:47;40.28;38.21;42.22;;
42701;Laerm;28316;49.504;8.526;2023-03-01T00:07:13;40.29;37.88;42.03;;
42701;Laerm;28316;49.504;8.526;2023-03-01T00:09:39;40.31;37.88;41.89;;
42701;Laerm;28316;49.504;8.526;2023-03-01T00:12:06;40.34;37.52;42.03;;
42701;Laerm;28316;49.504;8.526;2023-03-01T00:14:32;40.38;37.53;42.16;;
42701;Laerm;28316;49.504;8.526;2023-03-01T00:16:58;40.39;37.88;42.22;;
42701;Laerm;28316;49.504;8.526;2023-03-01T00:19:23;40.42;38.21;42.16;;
42701;Laerm;28316;49.504;8.526;2023-03-01T00:21:49;40.43;37.52;42.16;;
42701;Laerm;28316;49.504;8.526;2023-03-01T00:24:16;40.45;38.21;42.24;;
42701;Laerm;28316;49.504;8.526;2023-03-01T00:26:42;40.47;37.88;42.03;;
42701;Laerm;28316;49.504;8.526;2023-03-01T00:29:08;40.51;38.05;42.22;;
42701;Laerm;28316;49.504;8.526;2023-03-01T00:31:34;40.54;38.47;42.29;;
42701;Laerm;28316;49.504;8.526;2023-03-01T00:34:04;40.56;37.52;42.29;;
42701;Laerm;28316;49.504;8.526;2023-03-01T00:36:34;40.60;38.21;42.47;;
42701;Laerm;28316;49.504;8.526;2023-03-01T00:39:01;40.61;38.37;42.22;;
42701;Laerm;28316;49.504;8.526;2023-03-01T00:41:27;40.61;38.21;42.35;;
42701;Laerm;28316;49.504;8.526;2023-03-01T00:43:53;40.66;38.37;42.41;;
42701;Laerm;28316;49.504;8.526;2023-03-01T00:46:23;40.66;38.52;42.35;;
42701;Laerm;28316;49.504;8.526;2023-03-01T00:48:50;40.67;38.37;42.22;;
42701;Laerm;28316;49.504;8.526;2023-03-01T00:51:20;40.71;38.52;42.35;;
42701;Laerm;28316;49.504;8.526;2023-03-01T00:53:50;40.73;38.67;42.35;;
42701;Laerm;28316;49.504;8.526;2023-03-01T00:56:16;40.75;38.37;42.47;;
42701;Laerm;28316;49.504;8.526;2023-03-01T00:58:42;40.79;38.52;42.41;;
42701;Laerm;28316;49.504;8.526;2023-03-01T01:01:10;40.82;38.81;42.41;;
42701;Laerm;28316;49.504;8.526;2023-03-01T01:03:54;40.86;39.08;42.47;;
42701;Laerm;28316;49.504;8.526;2023-03-01T01:06:27;40.91;38.81;42.41;;
42701;Laerm;28316;49.504;8.526;2023-03-01T01:08:54;40.95;38.95;42.71;;
42701;Laerm;28316;49.504;8.526;2023-03-01T01:11:22;40.97;38.81;42.71;;
42701;Laerm;28316;49.504;8.526;2023-03-01T01:13:49;40.98;38.81;42.47;;
42701;Laerm;28316;49.504;8.526;2023-03-01T01:16:17;40.99;39.34;42.41;;
42701;Laerm;28316;49.504;8.526;2023-03-01T01:18:44;40.98;38.95;42.53;;
42701;Laerm;28316;49.504;8.526;2023-03-01T01:21:14;40.99;39.08;42.47;;
42701;Laerm;28316;49.504;8.526;2023-03-01T01:23:42;41.03;38.95;42.59;;
42701;Laerm;28316;49.504;8.526;2023-03-01T01:26:18;41.04;39.08;42.59;;
42701;Laerm;28316;49.504;8.526;2023-03-01T01:28:45;41.03;38.67;42.53;;
42701;Laerm;28316;49.504;8.526;2023-03-01T01:31:11;41.04;39.34;42.41;;
42701;Laerm;28316;49.504;8.526;2023-03-01T01:33:37;41.07;39.08;42.76;;
42701;Laerm;28316;49.504;8.526;2023-03-01T01:36:05;41.08;39.35;42.47;;
42701;Laerm;28316;49.504;8.526;2023-03-01T01:38:31;41.08;38.95;42.76;;
42701;Laerm;28316;49.504;8.526;2023-03-01T01:41:17;41.10;38.95;42.53;;
42701;Laerm;28316;49.504;8.526;2023-03-01T01:44:20;41.12;39.08;42.53;;
42701;Laerm;28316;49.504;8.526;2023-03-01T01:47:04;41.16;39.34;42.47;;
42701;Laerm;28316;49.504;8.526;2023-03-01T01:49:42;41.17;39.46;42.59;;
42701;Laerm;28316;49.504;8.526;2023-03-01T01:52:33;41.19;39.46;42.47;;
42701;Laerm;28316;49.504;8.526;2023-03-01T01:57:41;41.22;39.58;42.53;;
42701;Laerm;28316;49.504;8.526;2023-03-01T02:00:18;41.25;39.21;42.82;;
42701;Laerm;28316;49.504;8.526;2023-03-01T02:02:47;41.26;39.21;42.59;;
42701;Laerm;28316;49.504;8.526;2023-03-01T02:08:12;41.27;39.58;42.59;;
42701;Laerm;28316;49.504;8.526;2023-03-01T02:10:39;41.28;39.81;42.59;;
42701;Laerm;28316;49.504;8.526;2023-03-01T02:13:06;41.29;39.46;42.76;;
42701;Laerm;28316;49.504;8.526;2023-03-01T02:15:34;41.29;39.46;42.65;;
42701;Laerm;28316;49.504;8.526;2023-03-01T02:18:02;41.29;39.08;42.88;;
42701;Laerm;28316;49.504;8.526;2023-03-01T02:23:17;41.28;39.70;42.71;;
42701;Laerm;28316;49.504;8.526;2023-03-01T02:28:37;41.26;39.46;42.71;;
42701;Laerm;28316;49.504;8.526;2023-03-01T02:31:06;41.26;39.08;42.53;;
42701;Laerm;28316;49.504;8.526;2023-03-01T02:33:52;41.28;39.58;42.82;;
42701;Laerm;28316;49.504;8.526;2023-03-01T02:36:30;41.28;39.34;42.71;;
42701;Laerm;28316;49.504;8.526;2023-03-01T02:38:59;41.28;39.46;42.65;;
42701;Laerm;28316;49.504;8.526;2023-03-01T02:41:30;41.26;39.34;42.88;;
42701;Laerm;28316;49.504;8.526;2023-03-01T02:43:57;41.25;39.68;42.76;;
42701;Laerm;28316;49.504;8.526;2023-03-01T02:46:26;41.22;39.70;42.59;;
42701;Laerm;28316;49.504;8.526;2023-03-01T02:48:55;41.22;39.58;42.76;;
42701;Laerm;28316;49.504;8.526;2023-03-01T02:56:38;41.24;38.95;42.82;;
42701;Laerm;28316;49.504;8.526;2023-03-01T02:59:04;41.28;39.46;42.88;;
42701;Laerm;28316;49.504;8.526;2023-03-01T03:01:30;41.31;39.58;42.58;;
42701;Laerm;28316;49.504;8.526;2023-03-01T03:04:07;41.31;39.89;42.59;;
42701;Laerm;28316;49.504;8.526;2023-03-01T03:06:33;41.33;39.78;42.76;;
42701;Laerm;28316;49.504;8.526;2023-03-01T03:08:59;41.34;39.70;42.71;;
42701;Laerm;28316;49.504;8.526;2023-03-01T03:11:25;41.34;39.46;42.59;;
42701;Laerm;28316;49.504;8.526;2023-03-01T03:13:51;41.37;39.92;42.71;;
42701;Laerm;28316;49.504;8.526;2023-03-01T03:16:18;41.39;39.92;42.71;;
42701;Laerm;28316;49.504;8.526;2023-03-01T03:18:44;41.41;39.92;42.71;;
42701;Laerm;28316;49.504;8.526;2023-03-01T03:21:12;41.41;39.34;42.93;;
42701;Laerm;28316;49.504;8.526;2023-03-01T03:23:39;41.43;39.92;42.74;;
42701;Laerm;28316;49.504;8.526;2023-03-01T03:26:05;41.43;39.70;42.53;;
42701;Laerm;28316;49.504;8.526;2023-03-01T03:28:32;41.46;39.81;42.71;;
42701;Laerm;28316;49.504;8.526;2023-03-01T03:30:59;41.43;39.58;42.76;;
42701;Laerm;28316;49.504;8.526;2023-03-01T03:33:30;41.45;39.92;42.82;;
42701;Laerm;28316;49.504;8.526;2023-03-01T03:35:56;41.45;39.81;42.59;;
42701;Laerm;28316;49.504;8.526;2023-03-01T03:38:22;41.45;39.81;42.88;;
42701;Laerm;28316;49.504;8.526;2023-03-01T03:40:59;41.46;40.03;42.65;;
42701;Laerm;28316;49.504;8.526;2023-03-01T03:43:29;41.47;39.70;42.76;;
42701;Laerm;28316;49.504;8.526;2023-03-01T03:45:55;41.47;39.58;42.59;;
42701;Laerm;28316;49.504;8.526;2023-03-01T03:48:23;41.49;39.81;42.76;;
42701;Laerm;28316;49.504;8.526;2023-03-01T03:50:52;41.51;39.92;42.98;;
42701;Laerm;28316;49.504;8.526;2023-03-01T03:53:19;41.53;40.03;42.71;;
42701;Laerm;28316;49.504;8.526;2023-03-01T03:55:46;41.55;40.13;42.93;;
42701;Laerm;28316;49.504;8.526;2023-03-01T03:58:15;41.57;40.13;42.98;;
42701;Laerm;28316;49.504;8.526;2023-03-01T04:00:44;41.59;40.03;43.14;;
42701;Laerm;28316;49.504;8.526;2023-03-01T04:03:11;41.59;39.70;42.82;;
42701;Laerm;28316;49.504;8.526;2023-03-01T04:05:39;41.59;40.03;42.82;;
42701;Laerm;28316;49.504;8.526;2023-03-01T04:08:06;41.58;39.70;42.98;;
42701;Laerm;28316;49.504;8.526;2023-03-01T04:10:38;41.59;40.23;42.88;;
42701;Laerm;28316;49.504;8.526;2023-03-01T04:13:07;41.58;40.13;42.93;;
42701;Laerm;28316;49.504;8.526;2023-03-01T04:15:34;41.58;40.03;42.88;;
42701;Laerm;28316;49.504;8.526;2023-03-01T04:18:00;41.58;39.81;42.82;;
42701;Laerm;28316;49.504;8.526;2023-03-01T04:20:30;41.57;39.92;42.76;;
42701;Laerm;28316;49.504;8.526;2023-03-01T04:23:09;41.57;40.03;42.93;;
42701;Laerm;28316;49.504;8.526;2023-03-01T04:25:53;41.57;40.13;42.93;;
42701;Laerm;28316;49.504;8.526;2023-03-01T04:28:33;41.58;39.89;42.82;;
42701;Laerm;28316;49.504;8.526;2023-03-01T04:31:07;41.59;40.13;42.88;;
42701;Laerm;28316;49.504;8.526;2023-03-01T04:36:11;41.58;40.03;42.69;;
42701;Laerm;28316;49.504;8.526;2023-03-01T04:38:39;41.58;40.03;42.71;;
42701;Laerm;28316;49.504;8.526;2023-03-01T04:41:08;41.58;39.92;42.88;;
42701;Laerm;28316;49.504;8.526;2023-03-01T04:43:34;41.61;40.33;42.88;;
42701;Laerm;28316;49.504;8.526;2023-03-01T04:46:06;41.61;39.70;42.76;;
42701;Laerm;28316;49.504;8.526;2023-03-01T04:48:36;41.62;40.23;42.82;;
42701;Laerm;28316;49.504;8.526;2023-03-01T04:51:03;41.64;40.03;42.82;;
42701;Laerm;28316;49.504;8.526;2023-03-01T04:53:30;41.63;40.13;42.76;;
42701;Laerm;28316;49.504;8.526;2023-03-01T04:55:56;41.65;40.13;42.76;;
42701;Laerm;28316;49.504;8.526;2023-03-01T04:58:24;41.65;40.03;42.88;;
42701;Laerm;28316;49.504;8.526;2023-03-01T05:00:50;41.65;40.33;42.82;;
42701;Laerm;28316;49.504;8.526;2023-03-01T05:03:16;41.65;39.81;42.93;;
42701;Laerm;28316;49.504;8.526;2023-03-01T05:05:45;41.64;40.23;42.98;;
42701;Laerm;28316;49.504;8.526;2023-03-01T05:08:12;41.64;39.92;43.04;;
42701;Laerm;28316;49.504;8.526;2023-03-01T05:10:46;41.63;39.70;43.04;;
42701;Laerm;28316;49.504;8.526;2023-03-01T05:13:13;41.64;40.03;42.88;;
42701;Laerm;28316;49.504;8.526;2023-03-01T05:15:40;41.62;40.13;43.34;;
42701;Laerm;28316;49.504;8.526;2023-03-01T05:18:06;41.63;39.92;42.93;;
42701;Laerm;28316;49.504;8.526;2023-03-01T05:20:37;41.61;39.92;42.82;;
42701;Laerm;28316;49.504;8.526;2023-03-01T05:23:03;41.62;39.92;42.93;;
42701;Laerm;28316;49.504;8.526;2023-03-01T05:25:33;41.63;40.03;42.88;;
42701;Laerm;28316;49.504;8.526;2023-03-01T05:28:00;41.62;40.03;43.09;;
42701;Laerm;28316;49.504;8.526;2023-03-01T05:30:33;41.62;39.92;43.14;;
42701;Laerm;28316;49.504;8.526;2023-03-01T05:33:00;41.62;39.92;42.93;;
42701;Laerm;28316;49.504;8.526;2023-03-01T05:35:26;41.63;39.70;42.93;;
42701;Laerm;28316;49.504;8.526;2023-03-01T05:37:52;41.61;39.46;42.98;;
42701;Laerm;28316;49.504;8.526;2023-03-01T05:40:21;41.61;39.92;43.04;;
42701;Laerm;28316;49.504;8.526;2023-03-01T05:42:53;41.61;39.92;43.04;;
42701;Laerm;28316;49.504;8.526;2023-03-01T05:45:24;41.61;40.03;42.93;;
42701;Laerm;28316;49.504;8.526;2023-03-01T05:47:51;41.60;40.23;42.93;;
42701;Laerm;28316;49.504;8.526;2023-03-01T05:50:24;41.59;40.03;42.93;;
42701;Laerm;28316;49.504;8.526;2023-03-01T05:53:18;41.59;40.13;42.88;;
42701;Laerm;28316;49.504;8.526;2023-03-01T05:55:47;41.60;39.89;42.82;;
42701;Laerm;28316;49.504;8.526;2023-03-01T05:58:19;41.58;39.70;42.88;;
42701;Laerm;28316;49.504;8.526;2023-03-01T06:00:47;41.59;39.92;42.88;;
42701;Laerm;28316;49.504;8.526;2023-03-01T06:03:16;41.59;39.92;42.82;;
42701;Laerm;28316;49.504;8.526;2023-03-01T06:05:43;41.57;39.70;42.88;;
42701;Laerm;28316;49.504;8.526;2023-03-01T06:08:11;41.59;40.03;42.82;;
42701;Laerm;28316;49.504;8.526;2023-03-01T06:10:37;41.57;40.13;43.04;;
42701;Laerm;28316;49.504;8.526;2023-03-01T06:13:04;41.58;40.03;42.88;;
42701;Laerm;28316;49.504;8.526;2023-03-01T06:15:30;41.59;39.92;42.82;;
42701;Laerm;28316;49.504;8.526;2023-03-01T06:17:56;41.57;40.03;42.88;;
42701;Laerm;28316;49.504;8.526;2023-03-01T06:20:25;41.57;39.92;42.76;;
42701;Laerm;28316;49.504;8.526;2023-03-01T06:22:51;41.57;39.46;42.98;;
42701;Laerm;28316;49.504;8.526;2023-03-01T06:25:21;41.56;39.70;42.98;;
42701;Laerm;28316;49.504;8.526;2023-03-01T06:27:48;41.57;39.92;42.71;;
42701;Laerm;28316;49.504;8.526;2023-03-01T06:30:17;41.59;40.03;42.82;;
42701;Laerm;28316;49.504;8.526;2023-03-01T06:32:44;41.56;40.03;42.82;;
42701;Laerm;28316;49.504;8.526;2023-03-01T06:35:11;41.54;39.81;42.76;;
42701;Laerm;28316;49.504;8.526;2023-03-01T06:37:39;41.54;40.03;42.98;;
42701;Laerm;28316;49.504;8.526;2023-03-01T06:40:07;41.53;39.92;42.76;;
42701;Laerm;28316;49.504;8.526;2023-03-01T06:42:39;41.54;40.03;42.82;;
42701;Laerm;28316;49.504;8.526;2023-03-01T06:45:07;41.50;39.78;42.95;;
42701;Laerm;28316;49.504;8.526;2023-03-01T06:47:33;41.49;39.58;42.93;;
42701;Laerm;28316;49.504;8.526;2023-03-01T06:50:01;41.49;39.92;43.09;;
42701;Laerm;28316;49.504;8.526;2023-03-01T06:52:27;41.48;39.92;42.93;;
42701;Laerm;28316;49.504;8.526;2023-03-01T06:54:53;41.45;39.68;43.09;;
42701;Laerm;28316;49.504;8.526;2023-03-01T06:57:18;41.45;39.70;42.82;;
42701;Laerm;28316;49.504;8.526;2023-03-01T06:59:48;41.45;39.58;43.44;;
42701;Laerm;28316;49.504;8.526;2023-03-01T07:02:14;41.44;39.70;42.88;;
42701;Laerm;28316;49.504;8.526;2023-03-01T07:04:41;41.41;39.70;42.88;;
42701;Laerm;28316;49.504;8.526;2023-03-01T07:07:07;41.39;39.08;42.76;;
42701;Laerm;28316;49.504;8.526;2023-03-01T07:09:33;41.37;39.58;42.71;;
42701;Laerm;28316;49.504;8.526;2023-03-01T07:11:59;41.35;39.08;42.88;;
42701;Laerm;28316;49.504;8.526;2023-03-01T07:14:25;41.30;39.46;42.65;;
42701;Laerm;28316;49.504;8.526;2023-03-01T07:16:52;41.35;39.21;42.71;;
42701;Laerm;28316;49.504;8.526;2023-03-01T07:19:18;41.31;38.67;42.98;;
42701;Laerm;28316;49.504;8.526;2023-03-01T07:21:44;41.27;38.95;42.65;;
42701;Laerm;28316;49.504;8.526;2023-03-01T07:24:10;41.26;39.34;42.76;;
42701;Laerm;28316;49.504;8.526;2023-03-01T07:26:36;41.27;39.08;42.53;;
42701;Laerm;28316;49.504;8.526;2023-03-01T07:29:04;41.23;38.52;42.59;;
42701;Laerm;28316;49.504;8.526;2023-03-01T07:31:31;41.25;39.08;43.04;;
42701;Laerm;28316;49.504;8.526;2023-03-01T07:33:57;41.23;39.08;42.59;;
42701;Laerm;28316;49.504;8.526;2023-03-01T07:36:23;41.23;39.34;42.76;;
42701;Laerm;28316;49.504;8.526;2023-03-01T07:38:50;41.21;39.08;42.71;;
42701;Laerm;28316;49.504;8.526;2023-03-01T07:41:16;41.19;39.21;42.65;;
42701;Laerm;28316;49.504;8.526;2023-03-01T07:43:42;41.18;39.21;42.71;;
42701;Laerm;28316;49.504;8.526;2023-03-01T07:46:07;41.19;39.58;42.71;;
42701;Laerm;28316;49.504;8.526;2023-03-01T07:48:34;41.16;38.81;42.47;;
42701;Laerm;28316;49.504;8.526;2023-03-01T07:51:01;41.17;39.21;42.82;;
42701;Laerm;28316;49.504;8.526;2023-03-01T07:53:28;41.15;39.08;42.47;;
42701;Laerm;28316;49.504;8.526;2023-03-01T07:56:09;41.17;39.08;42.82;;
42701;Laerm;28316;49.504;8.526;2023-03-01T07:58:37;41.14;39.08;42.93;;
42701;Laerm;28316;49.504;8.526;2023-03-01T08:01:05;41.17;39.08;43.34;;
42701;Laerm;28316;49.504;8.526;2023-03-01T08:03:31;41.11;38.95;42.95;;
42701;Laerm;28316;49.504;8.526;2023-03-01T08:06:00;41.10;38.81;42.65;;
42701;Laerm;28316;49.504;8.526;2023-03-01T08:08:27;41.10;38.95;43.89;;
42701;Laerm;28316;49.504;8.526;2023-03-01T08:10:52;41.08;39.08;42.65;;
42701;Laerm;28316;49.504;8.526;2023-03-01T08:13:21;41.08;39.08;42.59;;
42701;Laerm;28316;49.504;8.526;2023-03-01T08:15:50;41.06;38.95;42.59;;
42701;Laerm;28316;49.504;8.526;2023-03-01T08:18:18;41.03;38.95;42.47;;
42701;Laerm;28316;49.504;8.526;2023-03-01T08:20:44;41.04;39.08;42.71;;
42701;Laerm;28316;49.504;8.526;2023-03-01T08:23:10;41.01;38.37;42.71;;
42701;Laerm;28316;49.504;8.526;2023-03-01T08:25:37;40.97;38.52;42.76;;
42701;Laerm;28316;49.504;8.526;2023-03-01T08:28:03;40.99;38.67;42.53;;
42701;Laerm;28316;49.504;8.526;2023-03-01T08:30:29;40.95;38.47;42.47;;
42701;Laerm;28316;49.504;8.526;2023-03-01T08:32:55;40.92;38.81;42.59;;
42701;Laerm;28316;49.504;8.526;2023-03-01T08:35:21;40.91;38.95;42.47;;
42701;Laerm;28316;49.504;8.526;2023-03-01T08:37:47;40.88;38.95;42.53;;
42701;Laerm;28316;49.504;8.526;2023-03-01T08:40:13;40.89;38.21;42.53;;
42701;Laerm;28316;49.504;8.526;2023-03-01T08:42:42;40.89;38.67;42.29;;
42701;Laerm;28316;49.504;8.526;2023-03-01T08:45:10;40.90;38.67;42.47;;
42701;Laerm;28316;49.504;8.526;2023-03-01T08:47:36;40.90;38.81;42.53;;
42701;Laerm;28316;49.504;8.526;2023-03-01T08:50:04;40.86;38.67;42.59;;
42701;Laerm;28316;49.504;8.526;2023-03-01T08:52:30;40.89;38.52;43.44;;
42701;Laerm;28316;49.504;8.526;2023-03-01T08:54:57;40.84;38.21;42.35;;
42701;Laerm;28316;49.504;8.526;2023-03-01T08:57:23;40.84;38.52;42.53;;
42701;Laerm;28316;49.504;8.526;2023-03-01T08:59:48;40.83;38.67;42.59;;
42701;Laerm;28316;49.504;8.526;2023-03-01T09:02:18;40.85;38.52;43.72;;
42701;Laerm;28316;49.504;8.526;2023-03-01T09:04:44;40.82;38.52;43.04;;
42701;Laerm;28316;49.504;8.526;2023-03-01T09:07:10;40.74;38.37;43.34;;
42701;Laerm;28316;49.504;8.526;2023-03-01T09:09:36;40.72;38.21;42.41;;
42701;Laerm;28316;49.504;8.526;2023-03-01T09:12:03;40.74;38.05;43.04;;
42701;Laerm;28316;49.504;8.526;2023-03-01T09:14:29;40.73;38.67;43.77;;
42701;Laerm;28316;49.504;8.526;2023-03-01T09:16:54;40.72;38.05;43.09;;
42701;Laerm;28316;49.504;8.526;2023-03-01T09:19:20;40.91;37.88;50.38;;
42701;Laerm;28316;49.504;8.526;2023-03-01T09:21:46;40.74;38.52;43.99;;
42701;Laerm;28316;49.504;8.526;2023-03-01T09:24:23;40.64;38.18;42.65;;
42701;Laerm;28316;49.504;8.526;2023-03-01T09:26:49;40.65;38.52;43.89;;
42701;Laerm;28316;49.504;8.526;2023-03-01T09:29:16;40.56;37.88;42.47;;
42701;Laerm;28316;49.504;8.526;2023-03-01T09:31:42;40.56;38.05;42.47;;
42701;Laerm;28316;49.504;8.526;2023-03-01T09:34:09;40.59;38.21;44.23;;
42701;Laerm;28316;49.504;8.526;2023-03-01T09:36:36;40.57;37.88;43.63;;
42701;Laerm;28316;49.504;8.526;2023-03-01T09:39:03;40.50;37.88;42.22;;
42701;Laerm;28316;49.504;8.526;2023-03-01T09:41:59;40.49;38.37;42.35;;
42701;Laerm;28316;49.504;8.526;2023-03-01T09:46:57;40.48;37.88;42.16;;
42701;Laerm;28316;49.504;8.526;2023-03-01T09:49:35;40.46;37.32;44.80;;
42701;Laerm;28316;49.504;8.526;2023-03-01T09:52:29;40.37;36.69;43.86;;
42701;Laerm;28316;49.504;8.526;2023-03-01T09:54:56;40.30;37.70;43.68;;
42701;Laerm;28316;49.504;8.526;2023-03-01T10:06:15;40.05;37.12;42.09;;
42701;Laerm;28316;49.504;8.526;2023-03-01T10:09:02;40.07;37.32;42.09;;
42701;Laerm;28316;49.504;8.526;2023-03-01T10:11:37;39.96;36.69;42.16;;
42701;Laerm;28316;49.504;8.526;2023-03-01T10:17:00;39.93;36.69;41.89;;
42701;Laerm;28316;49.504;8.526;2023-03-01T10:19:40;39.93;37.32;42.09;;
42701;Laerm;28316;49.504;8.526;2023-03-01T10:22:27;39.88;37.32;41.75;;
42701;Laerm;28316;49.504;8.526;2023-03-01T10:24:57;39.94;37.12;42.71;;
42701;Laerm;28316;49.504;8.526;2023-03-01T10:27:38;39.82;36.91;43.00;;
42701;Laerm;28316;49.504;8.526;2023-03-01T10:30:54;39.77;36.91;41.75;;
42701;Laerm;28316;49.504;8.526;2023-03-01T10:33:26;39.75;36.45;42.42;;
42701;Laerm;28316;49.504;8.526;2023-03-01T10:35:53;39.73;36.69;43.39;;
42701;Laerm;28316;49.504;8.526;2023-03-01T10:38:20;39.76;36.45;43.39;;
42701;Laerm;28316;49.504;8.526;2023-03-01T10:40:59;39.81;36.56;44.54;;
42701;Laerm;28316;49.504;8.526;2023-03-01T10:43:40;39.76;36.69;41.96;;
42701;Laerm;28316;49.504;8.526;2023-03-01T10:46:34;39.66;36.20;41.61;;
42701;Laerm;28316;49.504;8.526;2023-03-01T10:49:21;39.72;36.91;42.59;;
42701;Laerm;28316;49.504;8.526;2023-03-01T10:51:52;39.73;36.91;42.13;;
42701;Laerm;28316;49.504;8.526;2023-03-01T10:54:34;39.90;36.69;52.64;;
42701;Laerm;28316;49.504;8.526;2023-03-01T10:57:04;39.77;36.69;42.65;;
42701;Laerm;28316;49.504;8.526;2023-03-01T10:59:37;39.64;36.69;41.61;;
42701;Laerm;28316;49.504;8.526;2023-03-01T11:04:35;39.62;36.20;41.68;;
42701;Laerm;28316;49.504;8.526;2023-03-01T11:07:02;39.59;36.69;42.35;;
42701;Laerm;28316;49.504;8.526;2023-03-01T11:09:32;39.56;36.45;41.89;;
42701;Laerm;28316;49.504;8.526;2023-03-01T11:12:13;39.57;36.91;42.65;;
42701;Laerm;28316;49.504;8.526;2023-03-01T11:14:48;39.52;36.45;42.59;;
42701;Laerm;28316;49.504;8.526;2023-03-01T11:17:30;39.50;36.20;41.89;;
42701;Laerm;28316;49.504;8.526;2023-03-01T11:22:33;39.45;36.69;43.09;;
42701;Laerm;28316;49.504;8.526;2023-03-01T11:25:01;39.52;36.45;42.16;;
42701;Laerm;28316;49.504;8.526;2023-03-01T11:27:30;39.47;36.20;41.53;;
42701;Laerm;28316;49.504;8.526;2023-03-01T11:30:18;39.50;36.45;41.68;;
42701;Laerm;28316;49.504;8.526;2023-03-01T11:36:31;39.62;35.66;43.49;;
42701;Laerm;28316;49.504;8.526;2023-03-01T11:38:35;39.93;36.34;45.63;;
42701;Laerm;28316;49.504;8.526;2023-03-01T11:41:10;39.84;35.94;44.90;;
42701;Laerm;28316;49.504;8.526;2023-03-01T11:44:03;39.55;36.45;44.23;;
42701;Laerm;28316;49.504;8.526;2023-03-01T11:47:12;39.87;35.94;46.15;;
42701;Laerm;28316;49.504;8.526;2023-03-01T11:50:11;39.56;36.69;43.68;;
42701;Laerm;28316;49.504;8.526;2023-03-01T11:52:52;39.62;36.34;43.77;;
42701;Laerm;28316;49.504;8.526;2023-03-01T11:58:33;39.53;36.45;42.53;;
42701;Laerm;28316;49.504;8.526;2023-03-01T12:22:01;39.46;36.45;42.53;;
42701;Laerm;28316;49.504;8.526;2023-03-01T12:33:51;39.87;36.45;47.10;;
42701;Laerm;28316;49.504;8.526;2023-03-01T12:39:28;39.41;35.94;42.76;;
42701;Laerm;28316;49.504;8.526;2023-03-01T12:42:19;39.46;36.69;44.23;;
42701;Laerm;28316;49.504;8.526;2023-03-01T12:48:21;39.40;35.66;43.63;;
42701;Laerm;28316;49.504;8.526;2023-03-01T12:50:53;40.17;36.20;48.94;;
42701;Laerm;28316;49.504;8.526;2023-03-01T12:53:27;39.55;35.36;44.03;;
42701;Laerm;28316;49.504;8.526;2023-03-01T12:56:00;39.58;35.94;44.31;;
42701;Laerm;28316;49.504;8.526;2023-03-01T12:58:32;39.61;35.94;47.79;;
42701;Laerm;28316;49.504;8.526;2023-03-01T13:10:11;40.58;36.20;57.61;;
42701;Laerm;28316;49.504;8.526;2023-03-01T13:18:28;39.38;35.94;43.72;;
42701;Laerm;28316;49.504;8.526;2023-03-01T13:20:52;39.47;35.36;43.72;;
42701;Laerm;28316;49.504;8.526;2023-03-01T13:26:09;39.36;36.45;43.68;;
42701;Laerm;28316;49.504;8.526;2023-03-01T13:33:51;40.48;34.69;52.44;;
42701;Laerm;28316;49.504;8.526;2023-03-01T13:50:03;39.25;35.94;42.16;;
42701;Laerm;28316;49.504;8.526;2023-03-01T13:52:48;39.55;36.20;45.30;;
42701;Laerm;28316;49.504;8.526;2023-03-01T13:55:38;39.73;36.20;47.30;;
42701;Laerm;28316;49.504;8.526;2023-03-01T13:58:25;39.24;34.69;43.68;;
42701;Laerm;28316;49.504;8.526;2023-03-01T14:01:06;39.20;35.36;41.81;;
42701;Laerm;28316;49.504;8.526;2023-03-01T14:03:39;39.21;35.66;41.75;;
42701;Laerm;28316;49.504;8.526;2023-03-01T14:06:21;39.44;35.36;45.07;;
42701;Laerm;28316;49.504;8.526;2023-03-01T14:08:50;39.35;35.36;43.58;;
42701;Laerm;28316;49.504;8.526;2023-03-01T14:19:36;39.22;35.36;41.68;;
42701;Laerm;28316;49.504;8.526;2023-03-01T14:25:05;39.26;36.20;43.94;;
42701;Laerm;28316;49.504;8.526;2023-03-01T14:27:39;39.91;35.59;53.23;;
42701;Laerm;28316;49.504;8.526;2023-03-01T14:30:25;39.32;35.36;43.99;;
42701;Laerm;28316;49.504;8.526;2023-03-01T14:32:58;39.50;35.94;44.15;;
42701;Laerm;28316;49.504;8.526;2023-03-01T14:35:34;39.23;35.66;42.88;;
42701;Laerm;28316;49.504;8.526;2023-03-01T14:38:01;39.32;34.69;46.35;;
42701;Laerm;28316;49.504;8.526;2023-03-01T14:40:35;39.42;35.66;42.71;;
42701;Laerm;28316;49.504;8.526;2023-03-01T14:43:11;39.36;35.36;43.54;;
42701;Laerm;28316;49.504;8.526;2023-03-01T14:45:37;39.14;35.04;41.96;;
42701;Laerm;28316;49.504;8.526;2023-03-01T14:48:05;39.21;34.69;42.09;;
42701;Laerm;28316;49.504;8.526;2023-03-01T14:50:42;39.28;35.36;42.47;;
42701;Laerm;28316;49.504;8.526;2023-03-01T14:53:24;39.24;34.69;44.86;;
42701;Laerm;28316;49.504;8.526;2023-03-01T14:55:54;39.14;35.94;42.29;;
42701;Laerm;28316;49.504;8.526;2023-03-01T14:58:24;39.17;35.66;42.35;;
42701;Laerm;28316;49.504;8.526;2023-03-01T15:00:56;38.95;34.69;41.30;;
42701;Laerm;28316;49.504;8.526;2023-03-01T15:03:47;39.06;35.04;41.53;;
42701;Laerm;28316;49.504;8.526;2023-03-01T15:06:20;39.04;35.94;41.75;;
42701;Laerm;28316;49.504;8.526;2023-03-01T15:08:50;39.03;34.69;41.30;;
42701;Laerm;28316;49.504;8.526;2023-03-01T15:11:29;39.01;35.66;41.30;;
42701;Laerm;28316;49.504;8.526;2023-03-01T15:13:55;39.01;35.04;41.82;;
42701;Laerm;28316;49.504;8.526;2023-03-01T15:16:30;38.98;35.04;41.30;;
42701;Laerm;28316;49.504;8.526;2023-03-01T15:21:26;39.64;35.36;48.49;;
42701;Laerm;28316;49.504;8.526;2023-03-01T15:24:22;39.01;35.36;41.30;;
42701;Laerm;28316;49.504;8.526;2023-03-01T15:26:52;39.03;35.66;42.47;;
42701;Laerm;28316;49.504;8.526;2023-03-01T15:29:26;39.09;35.36;42.16;;
42701;Laerm;28316;49.504;8.526;2023-03-01T15:34:54;38.96;35.36;41.46;;
42701;Laerm;28316;49.504;8.526;2023-03-01T15:37:49;38.98;35.36;42.09;;
42701;Laerm;28316;49.504;8.526;2023-03-01T15:40:26;38.95;34.69;41.14;;
42701;Laerm;28316;49.504;8.526;2023-03-01T15:43:04;38.89;35.94;41.68;;
42701;Laerm;28316;49.504;8.526;2023-03-01T15:45:32;38.96;35.66;41.46;;
42701;Laerm;28316;49.504;8.526;2023-03-01T15:48:19;38.92;35.66;41.38;;
42701;Laerm;28316;49.504;8.526;2023-03-01T15:50:58;38.91;35.36;41.14;;
42701;Laerm;28316;49.504;8.526;2023-03-01T15:53:26;38.91;35.36;41.38;;
42701;Laerm;28316;49.504;8.526;2023-03-01T15:55:53;38.92;35.66;42.90;;
42701;Laerm;28316;49.504;8.526;2023-03-01T15:58:22;38.88;34.69;41.14;;
42701;Laerm;28316;49.504;8.526;2023-03-01T16:00:49;38.89;35.66;41.96;;
42701;Laerm;28316;49.504;8.526;2023-03-01T16:03:22;38.86;35.36;41.14;;
42701;Laerm;28316;49.504;8.526;2023-03-01T16:05:49;38.88;35.36;45.07;;
42701;Laerm;28316;49.504;8.526;2023-03-01T16:08:17;38.85;35.36;41.38;;
42701;Laerm;28316;49.504;8.526;2023-03-01T16:10:43;38.82;34.69;41.22;;
42701;Laerm;28316;49.504;8.526;2023-03-01T16:13:13;38.83;35.04;41.06;;
42701;Laerm;28316;49.504;8.526;2023-03-01T16:15:40;38.85;34.69;41.46;;
42701;Laerm;28316;49.504;8.526;2023-03-01T16:18:06;38.81;34.69;41.14;;
42701;Laerm;28316;49.504;8.526;2023-03-01T16:20:35;38.80;35.66;41.14;;